createdAt,value
2022-08-26T00:10:18.430Z,57.08
2022-08-26T00:12:45.960Z,56.86
2022-08-26T00:15:17.035Z,56.62
2022-08-26T00:18:21.919Z,56.78
2022-08-26T00:24:49.625Z,56.92
2022-08-26T00:31:17.040Z,56.92
2022-08-26T00:33:44.677Z,56.93
2022-08-26T00:36:19.930Z,56.77
2022-08-26T00:43:29.974Z,57.46
2022-08-26T00:46:30.260Z,57.48
2022-08-26T00:53:12.289Z,57.08
2022-08-26T00:55:45.661Z,56.91
2022-08-26T00:58:13.202Z,56.77
2022-08-26T01:04:37.009Z,57.21
2022-08-26T01:08:01.772Z,56.88
2022-08-26T01:10:31.669Z,57.18
2022-08-26T01:22:00.217Z,57.70
2022-08-26T01:24:30.292Z,57.78
2022-08-26T01:27:33.607Z,57.59
2022-08-26T01:30:05.146Z,57.76
2022-08-26T01:36:30.952Z,57.65
2022-08-26T01:42:50.138Z,57.87
2022-08-26T01:46:07.892Z,57.95
2022-08-26T01:48:39.400Z,57.71
2022-08-26T01:55:32.167Z,57.71
2022-08-26T02:14:48.028Z,58.19
2022-08-26T02:17:23.756Z,57.87
2022-08-26T02:19:51.475Z,57.75
2022-08-26T02:22:22.325Z,57.69
2022-08-26T02:25:09.860Z,57.75
2022-08-26T02:31:36.952Z,57.91
2022-08-26T02:35:00.533Z,57.80
2022-08-26T02:37:31.638Z,57.71
2022-08-26T02:44:34.148Z,57.54
2022-08-26T02:55:12.037Z,57.50
2022-08-26T03:05:58.353Z,57.41
2022-08-26T03:08:25.564Z,57.47
2022-08-26T03:10:52.980Z,57.25
2022-08-26T03:17:29.940Z,57.09
2022-08-26T03:19:57.829Z,57.19
2022-08-26T03:22:26.296Z,57.18
2022-08-26T03:24:54.776Z,57.01
2022-08-26T03:27:22.389Z,56.93
2022-08-26T03:29:49.934Z,57.13
2022-08-26T03:32:18.162Z,56.80
2022-08-26T03:34:45.906Z,56.93
2022-08-26T03:37:14.722Z,57.09
2022-08-26T03:39:42.499Z,56.89
2022-08-26T03:46:06.166Z,57.20
2022-08-26T03:48:34.026Z,56.90
2022-08-26T03:54:43.574Z,57.26
2022-08-26T03:57:11.064Z,57.26
2022-08-26T03:59:38.689Z,57.13
2022-08-26T04:02:11.760Z,57.09
2022-08-26T04:12:03.604Z,57.13
2022-08-26T04:14:31.184Z,57.17
2022-08-26T04:20:50.992Z,57.36
2022-08-26T04:31:01.978Z,57.53
2022-08-26T04:33:32.412Z,57.51
2022-08-26T04:36:14.325Z,57.38
2022-08-26T04:38:43.313Z,57.57
2022-08-26T04:45:05.911Z,57.69
2022-08-26T04:47:38.162Z,57.65
2022-08-26T04:53:47.355Z,57.75
2022-08-26T04:56:15.086Z,57.75
2022-08-26T04:58:42.632Z,57.97
2022-08-26T05:05:01.440Z,58.17
2022-08-26T05:07:44.671Z,58.15
2022-08-26T05:10:12.571Z,58.32
2022-08-26T05:12:55.301Z,58.27
2022-08-26T05:15:23.879Z,58.44
2022-08-26T05:17:51.417Z,58.30
2022-08-26T05:20:22.615Z,58.09
2022-08-26T05:22:53.266Z,58.11
2022-08-26T05:25:21.206Z,58.05
2022-08-26T05:27:48.814Z,58.03
2022-08-26T05:30:16.444Z,58.07
2022-08-26T05:32:44.149Z,58.26
2022-08-26T05:35:11.781Z,58.35
2022-08-26T05:37:39.376Z,58.19
2022-08-26T05:40:07.495Z,58.34
2022-08-26T05:42:36.021Z,58.64
2022-08-26T05:45:04.306Z,58.77
2022-08-26T05:47:32.052Z,58.97
2022-08-26T05:49:59.977Z,58.92
2022-08-26T05:52:27.585Z,58.94
2022-08-26T05:54:55.685Z,58.83
2022-08-26T05:57:23.290Z,58.54
2022-08-26T05:59:51.537Z,58.66
2022-08-26T06:02:19.089Z,58.65
2022-08-26T06:04:46.988Z,58.83
2022-08-26T06:07:14.584Z,58.96
2022-08-26T06:09:42.436Z,58.88
2022-08-26T06:12:10.220Z,58.87
2022-08-26T06:14:37.804Z,58.89
2022-08-26T06:17:05.393Z,58.61
2022-08-26T06:19:34.429Z,58.62
2022-08-26T06:22:02.171Z,58.70
2022-08-26T06:24:29.807Z,58.45
2022-08-26T06:27:01.356Z,58.30
2022-08-26T06:29:31.900Z,58.32
2022-08-26T06:31:59.822Z,58.33
2022-08-26T06:34:30.399Z,58.55
2022-08-26T06:37:04.039Z,58.54
2022-08-26T06:39:34.278Z,57.98
2022-08-26T06:42:02.930Z,58.06
2022-08-26T06:44:30.966Z,58.16
2022-08-26T06:47:00.282Z,58.08
2022-08-26T06:49:28.029Z,58.08
2022-08-26T06:51:56.845Z,57.42
2022-08-26T06:54:26.424Z,57.32
2022-08-26T06:56:54.190Z,57.21
2022-08-26T06:59:21.697Z,57.13
2022-08-26T07:01:49.747Z,57.27
2022-08-26T07:04:21.899Z,57.30
2022-08-26T07:06:52.802Z,57.13
2022-08-26T07:09:23.420Z,56.87
2022-08-26T07:11:52.254Z,56.76
2022-08-26T07:14:21.505Z,56.32
2022-08-26T07:16:52.857Z,56.04
2022-08-26T07:19:29.883Z,56.00
2022-08-26T07:22:03.445Z,55.96
2022-08-26T07:24:32.794Z,55.85
2022-08-26T07:27:07.047Z,55.51
2022-08-26T07:29:37.190Z,55.74
2022-08-26T07:32:05.332Z,55.29
2022-08-26T07:38:14.220Z,54.80
2022-08-26T07:44:23.414Z,54.41
2022-08-26T07:46:52.102Z,54.57
2022-08-26T07:49:22.081Z,54.55
2022-08-26T07:51:50.046Z,54.94
2022-08-26T07:54:17.728Z,54.43
2022-08-26T08:00:59.178Z,54.52
2022-08-26T08:03:27.443Z,54.80
2022-08-26T08:05:55.056Z,54.79
2022-08-26T08:08:27.608Z,54.60
2022-08-26T08:14:37.730Z,54.20
2022-08-26T08:20:59.063Z,53.68
2022-08-26T08:23:33.715Z,53.23
2022-08-26T08:26:11.562Z,53.08
2022-08-26T08:28:39.996Z,52.40
2022-08-26T08:35:00.181Z,52.43
2022-08-26T08:37:27.667Z,52.34
2022-08-26T08:39:55.633Z,51.96
2022-08-26T08:42:43.964Z,51.09
2022-08-26T08:45:42.053Z,51.04
2022-08-26T08:52:40.685Z,51.27
2022-08-26T08:59:19.354Z,50.79
2022-08-26T09:02:33.370Z,49.95
2022-08-26T09:09:32.907Z,49.83
2022-08-26T09:16:37.370Z,49.60
2022-08-26T09:19:25.520Z,49.84
2022-08-26T09:22:02.873Z,49.76
2022-08-26T09:24:41.979Z,49.82
2022-08-26T09:31:25.830Z,48.79
2022-08-26T09:34:31.000Z,49.14
2022-08-26T09:37:00.872Z,48.63
2022-08-26T09:39:38.311Z,48.12
2022-08-26T09:42:19.002Z,47.79
2022-08-26T09:44:55.685Z,47.11
2022-08-26T09:47:31.994Z,46.72
2022-08-26T09:50:23.469Z,46.89
2022-08-26T09:53:30.343Z,46.49
2022-08-26T10:00:00.287Z,46.16
2022-08-26T10:10:44.656Z,42.72
2022-08-26T10:13:33.176Z,41.74
2022-08-26T10:16:16.792Z,41.28
2022-08-26T10:19:05.726Z,40.57
2022-08-26T10:21:42.824Z,40.40
2022-08-26T10:24:20.484Z,39.85
2022-08-26T10:27:05.641Z,39.36
2022-08-26T10:29:47.071Z,39.72
2022-08-26T10:32:36.360Z,37.27
2022-08-26T10:43:31.311Z,37.05
2022-08-26T10:46:08.641Z,34.98
2022-08-26T10:48:52.502Z,34.79
2022-08-26T10:59:58.426Z,32.15
2022-08-26T11:06:18.334Z,29.27
2022-08-26T11:13:05.021Z,28.10
2022-08-26T11:15:32.186Z,26.37
2022-08-26T11:18:05.218Z,25.48
2022-08-26T11:25:06.448Z,25.84
2022-08-26T11:35:54.067Z,31.32
2022-08-26T11:46:31.117Z,33.60
2022-08-26T11:49:06.614Z,34.90
2022-08-26T11:51:40.069Z,34.34
2022-08-26T11:54:30.702Z,34.68
2022-08-26T11:57:11.654Z,34.62
2022-08-26T11:59:41.787Z,35.01
2022-08-26T12:06:30.418Z,34.84
2022-08-26T12:09:02.443Z,37.01
2022-08-26T12:15:39.603Z,37.07
2022-08-26T12:18:29.150Z,35.67
2022-08-26T12:21:00.912Z,33.55
2022-08-26T12:23:31.336Z,32.66
2022-08-26T12:26:26.933Z,34.25
2022-08-26T12:33:14.164Z,33.79
2022-08-26T12:40:25.412Z,34.84
2022-08-26T12:42:53.851Z,34.65
2022-08-26T12:45:38.034Z,36.46
2022-08-26T12:48:26.016Z,35.31
2022-08-26T12:54:56.739Z,36.51
2022-08-26T12:57:30.834Z,35.98
2022-08-26T13:00:23.137Z,36.73
2022-08-26T13:02:56.974Z,36.30
2022-08-26T13:05:32.873Z,36.02
2022-08-26T13:08:25.206Z,37.16
2022-08-26T13:11:12.282Z,35.47
2022-08-26T13:13:40.324Z,35.09
2022-08-26T13:20:30.932Z,34.13
2022-08-26T13:22:59.383Z,33.53
2022-08-26T13:25:27.082Z,32.11
2022-08-26T13:27:54.652Z,34.26
2022-08-26T13:34:04.668Z,33.73
2022-08-26T13:36:31.911Z,33.90
2022-08-26T13:38:59.145Z,33.75
2022-08-26T13:46:41.551Z,34.10
2022-08-26T13:49:14.426Z,34.54
2022-08-26T13:51:41.881Z,33.98
2022-08-26T13:54:09.342Z,35.33
2022-08-26T13:56:36.767Z,34.54
2022-08-26T13:59:06.549Z,35.27
2022-08-26T14:01:35.813Z,34.51
2022-08-26T14:04:03.446Z,35.52
2022-08-26T14:10:40.449Z,34.24
2022-08-26T14:13:08.114Z,34.61
2022-08-26T14:15:37.931Z,33.90
2022-08-26T14:18:13.110Z,34.60
2022-08-26T14:20:50.553Z,35.04
2022-08-26T14:23:17.943Z,35.07
2022-08-26T14:25:45.236Z,34.65
2022-08-26T14:28:12.564Z,35.34
2022-08-26T14:34:50.121Z,36.52
2022-08-26T14:37:17.575Z,36.35
2022-08-26T14:39:46.184Z,36.78
2022-08-26T14:46:24.160Z,37.04
2022-08-26T14:48:51.436Z,35.96
2022-08-26T14:51:50.351Z,35.36
2022-08-26T14:54:18.525Z,34.88
2022-08-26T14:57:08.348Z,35.23
2022-08-26T15:00:25.073Z,36.58
2022-08-26T15:02:56.326Z,37.34
2022-08-26T15:05:23.978Z,37.55
2022-08-26T15:07:54.326Z,36.48
2022-08-26T15:10:23.351Z,36.40
2022-08-26T15:16:54.912Z,36.03
2022-08-26T15:19:24.422Z,36.28
2022-08-26T15:21:52.297Z,36.41
2022-08-26T15:24:23.366Z,36.98
2022-08-26T15:26:51.681Z,37.24
2022-08-26T15:29:19.725Z,37.60
2022-08-26T15:31:47.842Z,38.53
2022-08-26T15:34:17.244Z,39.39
2022-08-26T15:36:47.432Z,39.53
2022-08-26T15:39:16.910Z,39.85
2022-08-26T15:41:44.756Z,40.26
2022-08-26T15:44:13.728Z,40.52
2022-08-26T15:46:41.691Z,41.07
2022-08-26T15:49:09.544Z,41.43
2022-08-26T15:51:46.246Z,41.35
2022-08-26T15:54:15.298Z,42.62
2022-08-26T15:56:43.594Z,42.82
2022-08-26T16:02:45.459Z,43.46
2022-08-26T16:08:55.542Z,43.79
2022-08-26T16:15:04.484Z,43.62
2022-08-26T16:21:22.530Z,44.25
2022-08-26T16:23:50.526Z,44.26
2022-08-26T16:30:10.522Z,43.31
2022-08-26T16:32:38.101Z,43.34
2022-08-26T16:35:06.349Z,43.84
2022-08-26T16:41:29.148Z,44.84
2022-08-26T16:43:57.217Z,44.59
2022-08-26T16:50:22.222Z,44.62
2022-08-26T16:52:54.273Z,43.93
2022-08-26T16:55:25.025Z,44.85
2022-08-26T16:57:52.926Z,45.06
2022-08-26T17:00:30.313Z,44.99
2022-08-26T17:02:59.628Z,45.37
2022-08-26T17:05:28.906Z,45.21
2022-08-26T17:07:58.843Z,45.76
2022-08-26T17:14:10.393Z,46.41
2022-08-26T17:17:09.946Z,46.22
2022-08-26T17:19:47.371Z,46.26
2022-08-26T17:22:15.648Z,46.64
2022-08-26T17:24:43.445Z,46.61
2022-08-26T17:27:11.447Z,46.50
2022-08-26T17:29:39.372Z,46.48
2022-08-26T17:32:07.041Z,46.81
2022-08-26T17:34:34.745Z,47.37
2022-08-26T17:37:02.353Z,47.60
2022-08-26T17:39:30.017Z,47.88
2022-08-26T17:41:59.192Z,48.11
2022-08-26T17:44:26.883Z,48.37
2022-08-26T17:46:54.542Z,48.62
2022-08-26T17:49:22.153Z,48.54
2022-08-26T17:51:50.826Z,48.39
2022-08-26T17:54:18.511Z,48.65
2022-08-26T17:56:49.232Z,48.78
2022-08-26T17:59:17.461Z,49.25
2022-08-26T18:01:45.724Z,49.58
2022-08-26T18:04:14.968Z,49.40
2022-08-26T18:06:42.917Z,49.12
2022-08-26T18:09:10.932Z,49.57
2022-08-26T18:11:40.202Z,49.67
2022-08-26T18:14:08.062Z,50.17
2022-08-26T18:16:36.096Z,50.39
2022-08-26T18:19:04.928Z,50.37
2022-08-26T18:21:33.683Z,50.55
2022-08-26T18:24:01.485Z,50.46
2022-08-26T18:26:41.212Z,50.25
2022-08-26T18:29:11.564Z,50.35
2022-08-26T18:31:39.322Z,50.53
2022-08-26T18:34:15.693Z,50.01
2022-08-26T18:36:44.606Z,50.19
2022-08-26T18:39:17.550Z,50.07
2022-08-26T18:41:51.287Z,50.29
2022-08-26T18:44:23.957Z,50.30
2022-08-26T18:47:00.565Z,50.54
2022-08-26T18:49:31.990Z,50.64
2022-08-26T18:51:59.779Z,51.06
2022-08-26T18:54:28.715Z,51.03
2022-08-26T18:56:56.349Z,51.36
2022-08-26T18:59:26.854Z,50.74
2022-08-26T19:01:58.204Z,50.57
2022-08-26T19:04:26.234Z,50.77
2022-08-26T19:06:53.825Z,50.95
2022-08-26T19:09:21.502Z,51.44
2022-08-26T19:11:49.840Z,51.40
2022-08-26T19:14:18.809Z,51.59
2022-08-26T19:16:49.001Z,51.62
2022-08-26T19:19:16.932Z,51.64
2022-08-26T19:21:44.629Z,51.83
2022-08-26T19:24:15.461Z,51.72
2022-08-26T19:26:45.281Z,51.99
2022-08-26T19:29:14.175Z,51.86
2022-08-26T19:31:41.967Z,52.09
2022-08-26T19:34:24.670Z,51.88
2022-08-26T19:36:53.227Z,51.53
2022-08-26T19:39:22.495Z,51.50
2022-08-26T19:41:50.303Z,51.38
2022-08-26T19:44:19.988Z,51.55
2022-08-26T19:46:47.218Z,51.32
2022-08-26T19:49:14.535Z,51.45
2022-08-26T19:51:41.751Z,51.83
2022-08-26T19:54:08.916Z,51.70
2022-08-26T19:56:36.411Z,51.94
2022-08-26T19:59:03.788Z,52.08
2022-08-26T20:01:31.036Z,52.12
2022-08-26T20:03:58.352Z,52.28
2022-08-26T20:06:25.602Z,51.97
2022-08-26T20:08:53.880Z,52.25
2022-08-26T20:11:22.321Z,52.32
2022-08-26T20:13:49.582Z,52.35
2022-08-26T20:16:17.470Z,52.46
2022-08-26T20:18:45.586Z,51.96
2022-08-26T20:21:13.902Z,52.27
2022-08-26T20:23:41.523Z,52.45
2022-08-26T20:26:08.812Z,52.64
2022-08-26T20:28:36.209Z,52.56
2022-08-26T20:31:03.612Z,52.87
2022-08-26T20:33:45.983Z,52.91
2022-08-26T20:36:15.495Z,53.19
2022-08-26T20:38:43.161Z,53.13
2022-08-26T20:41:10.333Z,53.18
2022-08-26T20:43:37.667Z,53.04
2022-08-26T20:46:09.937Z,53.06
2022-08-26T20:48:45.644Z,53.12
2022-08-26T20:51:13.156Z,53.33
2022-08-26T20:53:40.566Z,53.25
2022-08-26T20:56:10.956Z,53.36
2022-08-26T20:58:38.839Z,53.41
2022-08-26T21:01:08.342Z,53.12
2022-08-26T21:03:36.844Z,53.32
2022-08-26T21:06:04.371Z,53.50
2022-08-26T21:08:33.060Z,53.37
2022-08-26T21:11:02.050Z,53.35
2022-08-26T21:13:42.917Z,53.38
2022-08-26T21:16:19.604Z,53.60
2022-08-26T21:18:47.625Z,53.38
2022-08-26T21:21:14.758Z,53.46
2022-08-26T21:23:41.960Z,53.69
2022-08-26T21:26:14.271Z,53.85
2022-08-26T21:28:44.291Z,54.00
2022-08-26T21:31:17.534Z,54.08
2022-08-26T21:33:45.183Z,53.74
2022-08-26T21:36:14.554Z,54.08
2022-08-26T21:38:42.394Z,54.12
2022-08-26T21:41:12.721Z,54.00
2022-08-26T21:43:42.152Z,54.02
2022-08-26T21:46:14.167Z,53.68
2022-08-26T21:48:48.744Z,53.66
2022-08-26T21:51:21.276Z,53.72
2022-08-26T21:53:49.758Z,53.63
2022-08-26T21:56:19.636Z,53.59
2022-08-26T21:58:46.922Z,54.03
2022-08-26T22:01:19.698Z,54.25
2022-08-26T22:03:49.148Z,54.05
2022-08-26T22:06:18.857Z,54.49
2022-08-26T22:08:46.438Z,55.70
2022-08-26T22:11:14.938Z,57.49
2022-08-26T22:13:43.793Z,57.44
2022-08-26T22:16:12.501Z,57.56
2022-08-26T22:18:40.783Z,57.74
2022-08-26T22:21:14.408Z,57.95
2022-08-26T22:23:41.918Z,57.80
2022-08-26T22:26:12.849Z,58.53
2022-08-26T22:28:40.335Z,58.68
2022-08-26T22:31:11.024Z,58.76
2022-08-26T22:33:40.929Z,58.66
2022-08-26T22:36:18.746Z,58.94
2022-08-26T22:38:47.411Z,59.47
2022-08-26T22:41:15.635Z,59.41
2022-08-26T22:43:42.800Z,59.09
2022-08-26T22:46:17.042Z,59.19
2022-08-26T22:48:44.525Z,59.94
2022-08-26T22:51:12.457Z,59.98
2022-08-26T22:53:41.534Z,59.92
2022-08-26T22:56:09.923Z,60.18
2022-08-26T22:58:37.440Z,60.27
2022-08-26T23:01:06.899Z,60.42
2022-08-26T23:03:35.362Z,60.15
2022-08-26T23:06:06.805Z,60.19
2022-08-26T23:08:34.135Z,60.38
2022-08-26T23:11:01.669Z,61.19
2022-08-26T23:13:28.922Z,61.27
2022-08-26T23:16:08.872Z,61.13
2022-08-26T23:18:37.104Z,60.77
2022-08-26T23:21:04.739Z,60.90
2022-08-26T23:23:33.271Z,61.37
2022-08-26T23:26:03.346Z,61.16
2022-08-26T23:28:36.088Z,61.11
2022-08-26T23:31:03.730Z,61.30
2022-08-26T23:33:31.182Z,61.16
2022-08-26T23:36:06.453Z,61.12
2022-08-26T23:38:33.610Z,61.22
2022-08-26T23:41:02.398Z,61.32
2022-08-26T23:47:28.992Z,61.68
2022-08-26T23:49:56.240Z,61.44
2022-08-26T23:56:33.528Z,61.54
2022-08-26T23:59:00.775Z,61.73
